createdAt,value
2023-04-21T00:01:59.655Z,13.80
2023-04-21T00:04:27.501Z,13.57
2023-04-21T00:06:55.511Z,12.73
2023-04-21T00:09:22.850Z,15.15
2023-04-21T00:11:50.159Z,15.90
2023-04-21T00:14:17.890Z,11.57
2023-04-21T00:16:45.394Z,12.63
2023-04-21T00:19:14.182Z,14.25
2023-04-21T00:21:41.544Z,16.05
2023-04-21T00:24:09.113Z,13.88
2023-04-21T00:26:38.844Z,11.85
2023-04-21T00:29:06.776Z,18.80
2023-04-21T00:31:34.110Z,16.38
2023-04-21T00:34:01.590Z,14.48
2023-04-21T00:36:28.843Z,15.57
2023-04-21T00:38:56.193Z,13.15
2023-04-21T00:41:24.591Z,14.75
2023-04-21T00:44:05.346Z,12.48
2023-04-21T00:46:34.214Z,16.90
2023-04-21T00:49:05.381Z,19.88
2023-04-21T00:51:34.859Z,19.05
2023-04-21T00:54:07.230Z,15.88
2023-04-21T00:56:36.713Z,16.70
2023-04-21T00:59:04.326Z,14.10
2023-04-21T01:01:34.225Z,15.60
2023-04-21T01:04:02.359Z,16.15
2023-04-21T01:06:36.929Z,16.58
2023-04-21T01:09:06.128Z,13.63
2023-04-21T01:11:34.596Z,18.88
2023-04-21T01:14:01.835Z,16.35
2023-04-21T01:16:29.606Z,17.90
2023-04-21T01:18:57.113Z,17.77
2023-04-21T01:21:24.526Z,17.45
2023-04-21T01:23:51.867Z,19.60
2023-04-21T01:26:21.262Z,17.63
2023-04-21T01:28:50.033Z,19.58
2023-04-21T01:31:18.383Z,19.00
2023-04-21T01:33:45.955Z,19.13
2023-04-21T01:36:14.348Z,19.15
2023-04-21T01:38:42.279Z,19.02
2023-04-21T01:41:11.888Z,18.83
2023-04-21T01:43:39.503Z,18.70
2023-04-21T01:46:07.199Z,17.42
2023-04-21T01:48:35.010Z,18.80
2023-04-21T01:51:02.284Z,18.90
2023-04-21T01:53:29.599Z,17.83
2023-04-21T01:55:57.065Z,20.60
2023-04-21T01:58:24.843Z,20.00
2023-04-21T02:00:52.215Z,18.73
2023-04-21T02:03:19.806Z,19.10
2023-04-21T02:05:47.329Z,19.60
2023-04-21T02:08:14.654Z,20.65
2023-04-21T02:10:42.179Z,20.08
2023-04-21T02:13:12.632Z,20.42
2023-04-21T02:15:40.080Z,19.88
2023-04-21T02:18:08.413Z,21.00
2023-04-21T02:20:35.936Z,20.08
2023-04-21T02:23:03.279Z,19.23
2023-04-21T02:25:30.848Z,19.30
2023-04-21T02:27:58.149Z,20.42
2023-04-21T02:30:27.946Z,19.98
2023-04-21T02:32:55.248Z,19.25
2023-04-21T02:35:22.709Z,21.08
2023-04-21T02:37:51.292Z,18.23
2023-04-21T02:40:18.697Z,19.63
2023-04-21T02:42:46.113Z,19.05
2023-04-21T02:45:13.668Z,22.42
2023-04-21T02:47:41.337Z,20.27
2023-04-21T02:50:09.089Z,20.73
2023-04-21T02:52:37.990Z,20.77
2023-04-21T02:55:05.848Z,20.42
2023-04-21T02:57:33.136Z,20.90
2023-04-21T03:00:00.823Z,22.70
2023-04-21T03:02:28.293Z,21.08
2023-04-21T03:04:56.664Z,20.60
2023-04-21T03:07:24.633Z,22.02
2023-04-21T03:09:51.885Z,21.77
2023-04-21T03:12:19.404Z,21.77
2023-04-21T03:14:46.921Z,21.02
2023-04-21T03:17:14.567Z,19.50
2023-04-21T03:19:42.006Z,21.10
2023-04-21T03:22:09.582Z,20.70
2023-04-21T03:24:36.960Z,21.52
2023-04-21T03:27:06.214Z,23.00
2023-04-21T03:29:33.922Z,21.38
2023-04-21T03:32:01.364Z,20.92
2023-04-21T03:34:29.233Z,22.35
2023-04-21T03:36:58.310Z,21.95
2023-04-21T03:39:26.242Z,22.80
2023-04-21T03:41:54.159Z,22.33
2023-04-21T03:44:21.758Z,23.35
2023-04-21T03:46:49.083Z,21.65
2023-04-21T03:49:16.403Z,22.85
2023-04-21T03:51:43.692Z,23.52
2023-04-21T03:54:10.983Z,22.05
2023-04-21T03:56:38.272Z,22.20
2023-04-21T03:59:06.184Z,23.00
2023-04-21T04:01:36.770Z,21.25
2023-04-21T04:04:07.010Z,24.38
2023-04-21T04:06:36.095Z,23.70
2023-04-21T04:09:04.685Z,22.35
2023-04-21T04:11:32.457Z,24.20
2023-04-21T04:14:00.332Z,24.33
2023-04-21T04:16:29.019Z,24.67
2023-04-21T04:18:56.709Z,21.75
2023-04-21T04:21:24.036Z,23.58
2023-04-21T04:23:54.101Z,23.67
2023-04-21T04:26:25.190Z,25.23
2023-04-21T04:28:53.492Z,22.98
2023-04-21T04:31:21.556Z,24.48
2023-04-21T04:33:49.126Z,24.38
2023-04-21T04:36:16.595Z,21.20
2023-04-21T04:38:44.002Z,21.55
2023-04-21T04:41:12.763Z,23.00
2023-04-21T04:43:40.044Z,22.85
2023-04-21T04:46:09.455Z,23.98
2023-04-21T04:48:36.932Z,23.17
2023-04-21T04:51:04.864Z,22.55
2023-04-21T04:53:32.433Z,23.48
2023-04-21T04:55:59.856Z,23.95
2023-04-21T04:58:27.228Z,25.60
2023-04-21T05:00:54.700Z,23.85
2023-04-21T05:03:22.282Z,24.10
2023-04-21T05:05:49.845Z,24.35
2023-04-21T05:08:18.200Z,23.27
2023-04-21T05:10:45.665Z,23.92
2023-04-21T05:13:12.957Z,23.50
2023-04-21T05:15:40.315Z,25.08
2023-04-21T05:18:08.778Z,23.10
2023-04-21T05:20:36.103Z,24.23
2023-04-21T05:23:03.381Z,24.70
2023-04-21T05:25:30.913Z,22.90
2023-04-21T05:27:58.620Z,23.60
2023-04-21T05:30:25.876Z,26.45
2023-04-21T05:32:53.199Z,23.13
2023-04-21T05:35:20.565Z,23.58
2023-04-21T05:37:47.972Z,22.30
2023-04-21T05:40:15.726Z,22.90
2023-04-21T05:42:43.233Z,23.25
2023-04-21T05:45:11.181Z,25.33
2023-04-21T05:47:39.305Z,22.95
2023-04-21T05:50:07.355Z,22.90
2023-04-21T05:52:35.210Z,21.30
2023-04-21T05:55:02.615Z,23.63
2023-04-21T05:57:30.142Z,23.63
2023-04-21T05:59:57.381Z,23.33
2023-04-21T06:02:24.853Z,22.92
2023-04-21T06:04:52.446Z,22.25
2023-04-21T06:07:20.775Z,22.83
2023-04-21T06:09:51.520Z,21.30
2023-04-21T06:12:18.946Z,23.67
2023-04-21T06:14:46.382Z,21.90
2023-04-21T06:17:17.067Z,19.42
2023-04-21T06:19:44.444Z,22.13
2023-04-21T06:22:11.740Z,18.88
2023-04-21T06:24:39.027Z,20.85
2023-04-21T06:27:11.751Z,21.00
2023-04-21T06:29:39.611Z,19.17
2023-04-21T06:32:07.467Z,19.48
2023-04-21T06:34:35.515Z,21.35
2023-04-21T06:37:02.784Z,21.52
2023-04-21T06:39:30.605Z,21.27
2023-04-21T06:41:58.256Z,20.77
2023-04-21T06:44:27.714Z,20.55
2023-04-21T06:46:55.756Z,20.13
2023-04-21T06:49:22.964Z,21.33
2023-04-21T06:51:50.275Z,19.13
2023-04-21T06:54:17.614Z,21.08
2023-04-21T06:56:44.974Z,17.50
2023-04-21T06:59:12.308Z,17.00
2023-04-21T07:01:39.731Z,16.77
2023-04-21T07:04:07.288Z,17.17
2023-04-21T07:06:35.299Z,15.40
2023-04-21T07:09:02.578Z,15.18
2023-04-21T07:11:29.900Z,15.43
2023-04-21T07:13:58.496Z,17.85
2023-04-21T07:16:26.735Z,17.08
2023-04-21T07:18:56.733Z,16.40
2023-04-21T07:21:25.061Z,16.40
2023-04-21T07:23:52.360Z,16.17
2023-04-21T07:26:19.924Z,15.55
2023-04-21T07:28:47.483Z,16.15
2023-04-21T07:31:14.912Z,15.32
2023-04-21T07:33:42.386Z,15.85
2023-04-21T07:36:10.160Z,17.15
2023-04-21T07:38:38.383Z,15.45
2023-04-21T07:41:05.682Z,15.65
2023-04-21T07:43:32.925Z,15.57
2023-04-21T07:46:00.252Z,15.27
2023-04-21T07:48:28.016Z,14.25
2023-04-21T07:50:55.301Z,14.57
2023-04-21T07:53:22.847Z,14.93
2023-04-21T07:55:50.240Z,13.57
2023-04-21T07:58:17.659Z,14.30
2023-04-21T08:00:45.018Z,14.50
2023-04-21T08:03:12.391Z,14.52
2023-04-21T08:05:41.316Z,13.55
2023-04-21T08:08:09.488Z,12.02
2023-04-21T08:10:36.985Z,13.75
2023-04-21T08:13:06.335Z,12.23
2023-04-21T08:15:34.764Z,13.02
2023-04-21T08:18:02.272Z,13.27
2023-04-21T08:20:29.993Z,12.90
2023-04-21T08:22:58.113Z,11.50
2023-04-21T08:25:25.626Z,11.27
2023-04-21T08:27:53.428Z,11.52
2023-04-21T08:30:21.300Z,10.80
2023-04-21T08:32:48.594Z,11.80
2023-04-21T08:35:16.000Z,9.80
2023-04-21T08:37:43.799Z,10.38
2023-04-21T08:40:11.898Z,9.82
2023-04-21T08:42:39.645Z,9.80
2023-04-21T08:45:07.930Z,10.35
2023-04-21T08:47:36.044Z,10.60
2023-04-21T08:50:03.482Z,10.25
2023-04-21T08:52:30.812Z,10.88
2023-04-21T08:54:58.664Z,11.32
2023-04-21T08:57:25.990Z,12.05
2023-04-21T08:59:53.334Z,11.43
2023-04-21T09:02:20.888Z,11.32
2023-04-21T09:04:51.708Z,12.80
2023-04-21T09:07:37.223Z,12.65
2023-04-21T09:10:06.082Z,12.45
2023-04-21T09:12:33.469Z,13.30
2023-04-21T09:15:05.439Z,13.77
2023-04-21T09:17:33.859Z,14.30
2023-04-21T09:20:15.538Z,13.60
2023-04-21T09:22:43.229Z,12.77
2023-04-21T09:25:10.964Z,13.05
2023-04-21T09:27:38.488Z,12.57
2023-04-21T09:30:07.293Z,14.00
2023-04-21T09:32:41.701Z,14.93
2023-04-21T09:35:12.242Z,14.43
2023-04-21T09:37:40.390Z,16.10
2023-04-21T09:40:08.180Z,15.75
2023-04-21T09:42:39.210Z,15.82
2023-04-21T09:47:43.342Z,16.17
2023-04-21T09:50:13.066Z,17.10
2023-04-21T09:52:43.462Z,16.48
2023-04-21T09:55:14.540Z,11.43
2023-04-21T09:57:43.137Z,8.88
2023-04-21T10:00:12.686Z,7.60
2023-04-21T10:02:45.580Z,7.55
2023-04-21T10:05:13.446Z,8.40
2023-04-21T10:07:41.017Z,7.75
2023-04-21T10:10:29.814Z,7.95
2023-04-21T10:12:58.263Z,7.32
2023-04-21T10:15:31.759Z,7.95
2023-04-21T10:18:13.467Z,8.80
2023-04-21T10:21:11.289Z,7.15
2023-04-21T10:23:39.904Z,7.07
2023-04-21T10:26:15.252Z,7.35
2023-04-21T10:29:00.706Z,5.97
2023-04-21T10:31:51.644Z,6.78
2023-04-21T10:34:21.168Z,5.93
2023-04-21T10:37:11.296Z,7.82
2023-04-21T10:39:51.206Z,7.20
2023-04-21T10:42:27.469Z,7.10
2023-04-21T10:45:04.931Z,8.03
2023-04-21T10:47:44.669Z,7.88
2023-04-21T10:50:14.814Z,7.22
2023-04-21T10:52:57.086Z,7.38
2023-04-21T10:55:29.492Z,7.55
2023-04-21T10:57:57.938Z,8.02
2023-04-21T11:00:25.990Z,7.10
2023-04-21T11:02:58.499Z,7.53
2023-04-21T11:05:44.159Z,7.90
2023-04-21T11:08:14.497Z,8.07
2023-04-21T11:10:46.456Z,6.63
2023-04-21T11:13:13.854Z,7.22
2023-04-21T11:15:41.785Z,7.18
2023-04-21T11:18:09.840Z,7.40
2023-04-21T11:20:41.809Z,6.50
2023-04-21T11:23:09.214Z,7.30
2023-04-21T11:25:37.037Z,7.20
2023-04-21T11:28:04.989Z,7.90
2023-04-21T11:30:34.866Z,7.50
2023-04-21T11:33:03.080Z,9.15
2023-04-21T11:35:31.951Z,8.48
2023-04-21T11:38:04.456Z,7.95
2023-04-21T11:40:46.059Z,8.60
2023-04-21T11:43:13.553Z,9.00
2023-04-21T11:45:41.969Z,8.55
2023-04-21T11:48:19.602Z,9.30
2023-04-21T11:50:48.382Z,8.80
2023-04-21T11:53:16.369Z,8.73
2023-04-21T11:55:45.904Z,10.30
2023-04-21T11:58:16.632Z,10.50
2023-04-21T12:00:46.877Z,10.18
2023-04-21T12:03:14.728Z,9.82
2023-04-21T12:05:42.792Z,10.40
2023-04-21T12:08:16.393Z,11.98
2023-04-21T12:10:48.694Z,10.98
2023-04-21T12:13:29.536Z,11.27
2023-04-21T12:15:58.070Z,12.20
2023-04-21T12:18:28.277Z,12.25
2023-04-21T12:20:55.745Z,11.88
2023-04-21T12:23:23.066Z,12.27
2023-04-21T12:25:51.433Z,12.88
2023-04-21T12:28:18.854Z,12.52
2023-04-21T12:30:46.343Z,10.30
2023-04-21T12:33:13.945Z,11.70
2023-04-21T12:35:41.285Z,10.13
2023-04-21T12:38:10.231Z,10.68
2023-04-21T12:40:37.666Z,10.90
2023-04-21T12:43:05.330Z,10.02
2023-04-21T12:45:33.496Z,9.65
2023-04-21T12:48:03.799Z,9.40
2023-04-21T12:50:31.200Z,9.18
2023-04-21T12:52:59.707Z,10.45
2023-04-21T12:55:27.088Z,7.68
2023-04-21T12:57:54.651Z,9.63
2023-04-21T13:00:22.184Z,10.18
2023-04-21T13:02:49.695Z,9.13
2023-04-21T13:05:17.533Z,11.00
2023-04-21T13:07:44.856Z,9.88
2023-04-21T13:10:12.299Z,9.55
2023-04-21T13:12:39.552Z,10.18
2023-04-21T13:15:07.667Z,9.88
2023-04-21T13:17:34.993Z,9.23
2023-04-21T13:20:02.938Z,9.60
2023-04-21T13:22:30.276Z,10.13
2023-04-21T13:24:57.616Z,10.02
2023-04-21T13:27:25.075Z,9.27
2023-04-21T13:29:54.264Z,9.65
2023-04-21T13:32:21.961Z,9.95
2023-04-21T13:34:50.759Z,9.23
2023-04-21T13:37:18.664Z,10.18
2023-04-21T13:39:46.860Z,10.93
2023-04-21T13:42:14.196Z,9.52
2023-04-21T13:44:41.553Z,10.85
2023-04-21T13:47:09.319Z,9.32
2023-04-21T13:49:36.893Z,9.35
2023-04-21T13:52:04.343Z,8.63
2023-04-21T13:54:32.076Z,9.60
2023-04-21T13:57:00.682Z,9.43
2023-04-21T13:59:28.074Z,8.13
2023-04-21T14:01:56.005Z,9.07
2023-04-21T14:04:23.826Z,8.77
2023-04-21T14:06:51.311Z,9.55
2023-04-21T14:09:18.757Z,9.63
2023-04-21T14:11:46.321Z,9.57
2023-04-21T14:14:21.280Z,9.82
2023-04-21T14:16:55.814Z,13.05
2023-04-21T14:19:24.229Z,9.30
2023-04-21T14:21:52.352Z,10.70
2023-04-21T14:24:21.641Z,10.98
2023-04-21T14:26:49.325Z,10.65
2023-04-21T14:29:16.675Z,11.05
2023-04-21T14:31:44.311Z,11.10
2023-04-21T14:34:11.678Z,12.18
2023-04-21T14:36:39.360Z,11.05
2023-04-21T14:39:07.221Z,11.30
2023-04-21T14:41:35.260Z,10.93
2023-04-21T14:44:03.817Z,10.07
2023-04-21T14:46:31.393Z,10.90
2023-04-21T14:48:58.956Z,10.65
2023-04-21T14:51:27.733Z,10.77
2023-04-21T14:53:55.026Z,10.95
2023-04-21T14:56:22.546Z,10.88
2023-04-21T14:58:50.135Z,11.10
2023-04-21T15:01:17.869Z,11.60
2023-04-21T15:03:45.475Z,11.40
2023-04-21T15:06:12.932Z,11.95
2023-04-21T15:08:41.063Z,11.57
2023-04-21T15:11:08.617Z,12.90
2023-04-21T15:13:35.968Z,13.60
2023-04-21T15:16:05.000Z,16.08
2023-04-21T15:18:32.379Z,17.83
2023-04-21T15:21:00.735Z,16.70
2023-04-21T15:23:29.245Z,17.27
2023-04-21T15:25:58.015Z,15.30
2023-04-21T15:28:26.555Z,14.88
2023-04-21T15:30:53.928Z,16.48
2023-04-21T15:33:21.548Z,17.20
2023-04-21T15:35:49.114Z,17.92
2023-04-21T15:38:16.431Z,19.83
2023-04-21T15:40:58.989Z,17.23
2023-04-21T15:43:27.452Z,18.45
2023-04-21T15:45:55.097Z,20.08
2023-04-21T15:48:24.001Z,19.90
2023-04-21T15:50:52.321Z,19.63
2023-04-21T15:53:20.856Z,19.17
2023-04-21T15:55:50.517Z,18.42
2023-04-21T15:58:17.877Z,18.70
2023-04-21T16:00:46.233Z,16.90
2023-04-21T16:03:14.357Z,18.60
2023-04-21T16:05:42.537Z,17.15
2023-04-21T16:08:10.182Z,17.30
2023-04-21T16:10:37.539Z,15.05
2023-04-21T16:13:05.024Z,16.83
2023-04-21T16:15:32.595Z,17.15
2023-04-21T16:18:02.247Z,15.45
2023-04-21T16:20:31.102Z,17.83
2023-04-21T16:22:59.411Z,18.08
2023-04-21T16:25:27.411Z,17.40
2023-04-21T16:27:54.624Z,17.73
2023-04-21T16:30:22.112Z,16.50
2023-04-21T16:32:49.638Z,16.80
2023-04-21T16:35:17.033Z,15.25
2023-04-21T16:37:45.433Z,14.57
2023-04-21T16:40:12.861Z,17.73
2023-04-21T16:42:40.178Z,18.30
2023-04-21T16:45:07.998Z,16.63
2023-04-21T16:47:41.290Z,18.88
2023-04-21T16:50:10.371Z,19.67
2023-04-21T16:52:37.704Z,20.77
2023-04-21T16:55:05.480Z,22.23
2023-04-21T16:57:33.420Z,24.27
2023-04-21T17:00:01.705Z,25.75
2023-04-21T17:02:29.199Z,23.13
2023-04-21T17:04:56.604Z,28.33
2023-04-21T17:07:23.931Z,25.05
2023-04-21T17:09:52.011Z,26.38
2023-04-21T17:12:19.493Z,25.33
2023-04-21T17:14:49.411Z,27.35
2023-04-21T17:17:17.059Z,33.25
2023-04-21T17:19:44.425Z,26.85
2023-04-21T17:22:11.860Z,27.95
2023-04-21T17:24:51.795Z,26.38
2023-04-21T17:27:21.559Z,27.38
2023-04-21T17:29:48.964Z,26.30
2023-04-21T17:32:16.545Z,25.88
2023-04-21T17:34:44.183Z,28.83
2023-04-21T17:37:11.607Z,26.77
2023-04-21T17:39:39.347Z,26.52
2023-04-21T17:42:06.682Z,25.80
2023-04-21T17:44:33.974Z,27.92
2023-04-21T17:47:02.124Z,27.35
2023-04-21T17:49:29.722Z,27.30
2023-04-21T17:51:57.334Z,23.27
2023-04-21T17:54:24.964Z,25.42
2023-04-21T17:56:54.976Z,25.38
2023-04-21T17:59:23.125Z,25.83
2023-04-21T18:01:51.108Z,22.45
2023-04-21T18:04:19.114Z,27.05
2023-04-21T18:06:47.881Z,26.17
2023-04-21T18:09:15.490Z,27.17
2023-04-21T18:11:43.077Z,26.10
2023-04-21T18:14:10.626Z,26.85
2023-04-21T18:16:37.897Z,26.90
2023-04-21T18:19:05.311Z,27.17
2023-04-21T18:21:33.565Z,25.10
2023-04-21T18:24:01.386Z,24.85
2023-04-21T18:26:28.735Z,24.45
2023-04-21T18:28:58.337Z,23.70
2023-04-21T18:31:26.626Z,24.15
2023-04-21T18:33:54.882Z,25.98
2023-04-21T18:36:22.661Z,23.70
2023-04-21T18:38:50.337Z,25.88
2023-04-21T18:41:18.028Z,26.40
2023-04-21T18:43:45.869Z,26.08
2023-04-21T18:46:13.210Z,25.88
2023-04-21T18:48:40.672Z,24.83
2023-04-21T18:51:08.046Z,25.40
2023-04-21T18:53:35.393Z,26.83
2023-04-21T18:56:02.791Z,26.83
2023-04-21T18:58:30.608Z,26.52
2023-04-21T19:00:58.003Z,27.52
2023-04-21T19:03:26.118Z,28.50
2023-04-21T19:05:53.794Z,27.55
2023-04-21T19:08:33.727Z,26.48
2023-04-21T19:11:10.040Z,26.25
2023-04-21T19:13:37.495Z,29.65
2023-04-21T19:16:05.295Z,28.60
2023-04-21T19:18:32.774Z,28.42
2023-04-21T19:21:00.284Z,29.65
2023-04-21T19:23:27.637Z,30.48
2023-04-21T19:25:57.442Z,30.33
2023-04-21T19:28:25.139Z,31.27
2023-04-21T19:30:52.812Z,31.00
2023-04-21T19:33:20.483Z,31.88
2023-04-21T19:35:47.955Z,31.40
2023-04-21T19:38:16.224Z,32.45
2023-04-21T19:40:45.036Z,32.15
2023-04-21T19:43:12.881Z,32.63
2023-04-21T19:45:40.205Z,36.35
2023-04-21T19:48:08.071Z,33.28
2023-04-21T19:50:35.832Z,33.65
2023-04-21T19:53:03.608Z,30.83
2023-04-21T19:55:31.769Z,32.47
2023-04-21T19:57:59.224Z,34.03
2023-04-21T20:00:26.621Z,33.42
2023-04-21T20:02:54.131Z,32.45
2023-04-21T20:05:21.621Z,33.60
2023-04-21T20:07:49.388Z,32.45
2023-04-21T20:10:16.710Z,31.45
2023-04-21T20:12:44.265Z,32.75
2023-04-21T20:15:12.837Z,33.90
2023-04-21T20:17:41.457Z,34.92
2023-04-21T20:20:09.556Z,34.38
2023-04-21T20:22:36.940Z,33.40
2023-04-21T20:25:04.791Z,34.70
2023-04-21T20:27:32.365Z,36.30
2023-04-21T20:30:00.113Z,34.20
2023-04-21T20:32:27.439Z,37.08
2023-04-21T20:34:54.783Z,39.75
2023-04-21T20:37:23.219Z,40.78
2023-04-21T20:39:50.687Z,41.35
2023-04-21T20:42:19.435Z,39.97
2023-04-21T20:44:47.498Z,39.53
2023-04-21T20:47:14.953Z,36.55
2023-04-21T20:49:43.547Z,40.58
2023-04-21T20:52:13.701Z,37.35
2023-04-21T20:54:41.776Z,37.65
2023-04-21T20:57:10.439Z,38.75
2023-04-21T20:59:41.020Z,38.17
2023-04-21T21:02:09.655Z,37.97
2023-04-21T21:04:37.242Z,41.45
2023-04-21T21:07:04.746Z,39.10
2023-04-21T21:09:32.004Z,39.72
2023-04-21T21:11:59.544Z,41.88
2023-04-21T21:14:26.915Z,39.50
2023-04-21T21:16:55.297Z,37.88
2023-04-21T21:19:22.832Z,39.90
2023-04-21T21:21:50.108Z,38.03
2023-04-21T21:24:17.638Z,38.85
2023-04-21T21:26:45.288Z,39.80
2023-04-21T21:29:12.654Z,37.70
2023-04-21T21:31:40.017Z,39.83
2023-04-21T21:34:07.402Z,39.85
2023-04-21T21:36:34.956Z,40.40
2023-04-21T21:39:02.518Z,43.97
2023-04-21T21:41:31.121Z,41.67
2023-04-21T21:43:58.622Z,42.17
2023-04-21T21:46:26.162Z,43.85
2023-04-21T21:48:53.532Z,40.70
2023-04-21T21:51:20.986Z,41.00
2023-04-21T21:53:48.220Z,38.67
2023-04-21T21:56:15.859Z,37.17
2023-04-21T21:58:43.702Z,39.28
2023-04-21T22:01:11.614Z,43.03
2023-04-21T22:03:39.151Z,41.42
2023-04-21T22:06:06.973Z,42.17
2023-04-21T22:08:34.290Z,40.28
2023-04-21T22:11:03.593Z,38.38
2023-04-21T22:13:31.294Z,39.95
2023-04-21T22:15:58.524Z,39.70
2023-04-21T22:18:27.629Z,39.22
2023-04-21T22:20:55.190Z,42.78
2023-04-21T22:23:22.826Z,41.50
2023-04-21T22:25:50.428Z,39.25
2023-04-21T22:28:17.781Z,42.70
2023-04-21T22:30:45.240Z,41.75
2023-04-21T22:33:13.072Z,41.92
2023-04-21T22:35:40.623Z,42.85
2023-04-21T22:38:08.122Z,41.75
2023-04-21T22:40:35.985Z,44.67
2023-04-21T22:43:03.858Z,44.00
2023-04-21T22:45:31.200Z,44.53
2023-04-21T22:47:58.580Z,44.92
2023-04-21T22:50:25.900Z,47.70
2023-04-21T22:52:53.331Z,43.10
2023-04-21T22:55:20.787Z,46.50
2023-04-21T22:57:48.450Z,45.80
2023-04-21T23:00:16.206Z,43.35
2023-04-21T23:02:43.680Z,44.72
2023-04-21T23:05:11.227Z,44.13
2023-04-21T23:07:38.578Z,43.85
2023-04-21T23:10:07.398Z,44.10
2023-04-21T23:12:34.679Z,43.92
2023-04-21T23:15:01.988Z,42.10
2023-04-21T23:17:29.822Z,41.33
2023-04-21T23:19:58.451Z,43.22
2023-04-21T23:22:28.064Z,47.20
2023-04-21T23:24:55.394Z,46.40
2023-04-21T23:27:22.722Z,44.80
2023-04-21T23:29:50.486Z,47.58
2023-04-21T23:32:17.800Z,43.58
2023-04-21T23:34:45.309Z,43.78
2023-04-21T23:37:12.657Z,40.00
2023-04-21T23:39:40.054Z,40.58
2023-04-21T23:42:07.571Z,41.70
2023-04-21T23:44:37.304Z,41.22
2023-04-21T23:47:04.635Z,41.10
2023-04-21T23:49:32.584Z,38.78
2023-04-21T23:52:00.249Z,38.85
2023-04-21T23:54:27.623Z,37.63
2023-04-21T23:56:55.109Z,38.53
2023-04-21T23:59:22.404Z,39.95
